Terminal Aerodrome Forecast
Issued by NWS Tampa Bay Area, FL

Home | Current Version | Previous Version | Text Only | Print | Product List | Glossary On
Versions: 1 2 3 4 5 6 7 8 9 10 11 12 13 14 15 16 17 18 19 20 21 22 23 24 25 26
845
FTUS42 KTBW 082330
TAFTPA
TAF
KTPA 082330Z 0900/0924 25013G18KT P6SM FEW050 SCT200
     FM090500 29015G21KT P6SM BKN040 BKN200
     FM090900 32012G18KT P6SM SCT015 BKN030
     FM091400 32011G16KT P6SM SCT020 BKN035
     FM092200 29014G25KT P6SM SCT025 BKN035=

USA.gov is the U.S. government's official web portal to all federal, state and local government web resources and services.